createdAt,value
2023-05-12T08:22:13.853Z,1478.70
2023-05-12T08:24:41.598Z,736.30
2023-05-12T08:27:09.956Z,31.30
2023-05-12T08:29:38.704Z,266.00
2023-05-12T08:32:12.236Z,110.50
2023-05-12T08:34:39.458Z,59.70
2023-05-12T08:37:06.661Z,31.10
2023-05-12T08:39:34.778Z,23.60
2023-05-12T08:42:23.523Z,20.70
2023-05-12T08:44:50.994Z,14.20
2023-05-12T08:47:18.996Z,8.10
2023-05-12T08:49:46.420Z,16.30
2023-05-12T08:52:19.133Z,57.30
2023-05-12T08:54:55.444Z,11.40
2023-05-12T08:57:23.985Z,631.40
2023-05-12T08:59:53.954Z,1999.90
2023-05-12T09:02:23.206Z,1999.90
2023-05-12T09:04:55.351Z,1999.90
2023-05-12T09:07:24.717Z,128.60
2023-05-12T09:09:56.248Z,509.60
2023-05-12T09:12:23.611Z,1008.20
2023-05-12T09:15:01.261Z,1975.10
2023-05-12T09:17:28.894Z,36.00
2023-05-12T09:19:56.323Z,9.20
2023-05-12T09:22:36.123Z,1999.90
2023-05-12T09:25:22.044Z,1903.60
2023-05-12T09:27:54.101Z,286.10
2023-05-12T09:30:31.977Z,8.40
2023-05-12T09:33:07.403Z,272.90
2023-05-12T09:35:42.331Z,309.80
2023-05-12T09:38:11.364Z,61.00
2023-05-12T09:40:38.868Z,443.50
2023-05-12T09:43:06.687Z,162.10
2023-05-12T09:45:37.671Z,29.70
2023-05-12T09:48:11.821Z,11.60
2023-05-12T09:50:49.373Z,10.80
2023-05-12T09:53:20.647Z,6.10
2023-05-12T09:55:48.268Z,10.90
2023-05-12T09:58:19.907Z,553.00
2023-05-12T10:03:18.902Z,1999.90
2023-05-12T10:05:58.700Z,1999.90
2023-05-12T10:08:30.777Z,556.00
2023-05-12T10:10:58.146Z,1046.00
2023-05-12T10:13:26.687Z,543.20
2023-05-12T10:15:57.432Z,1999.90
2023-05-12T10:18:25.854Z,1999.90
2023-05-12T10:20:56.535Z,1999.90
2023-05-12T10:23:24.032Z,402.30
2023-05-12T10:25:51.536Z,702.90
2023-05-12T10:28:20.490Z,297.90
2023-05-12T10:30:51.426Z,117.80
2023-05-12T10:33:19.347Z,11.50
2023-05-12T10:35:48.582Z,9.20
2023-05-12T10:38:17.241Z,95.80
2023-05-12T10:40:58.991Z,12.70
2023-05-12T10:43:38.804Z,14.80
2023-05-12T10:46:07.773Z,19.70
2023-05-12T10:48:35.253Z,6.20
2023-05-12T10:51:10.322Z,3.20
2023-05-12T10:53:48.108Z,23.50
2023-05-12T10:56:25.038Z,1999.90
2023-05-12T10:59:12.002Z,1999.90
2023-05-12T11:02:02.390Z,1005.90
2023-05-12T11:04:48.220Z,909.50
2023-05-12T11:07:18.841Z,433.40
2023-05-12T11:09:57.749Z,40.30
2023-05-12T11:12:36.582Z,19.80
2023-05-12T11:18:31.317Z,74.30
2023-05-12T11:20:58.542Z,5.00
2023-05-12T11:23:29.134Z,5.10
2023-05-12T11:25:57.523Z,9.30
2023-05-12T11:28:25.017Z,6.20
2023-05-12T11:30:54.983Z,10.40
2023-05-12T11:33:23.194Z,2.40
2023-05-12T11:35:50.612Z,14.70
2023-05-12T11:38:18.550Z,92.60
2023-05-12T11:40:45.909Z,9.90
2023-05-12T11:43:15.473Z,5.30
2023-05-12T11:45:42.790Z,4.50
2023-05-12T11:48:15.116Z,4.40
2023-05-12T11:50:48.486Z,2.80
2023-05-12T11:55:51.914Z,5.30
2023-05-12T11:58:24.803Z,12.70
2023-05-12T12:00:52.198Z,4.70
2023-05-12T12:03:19.700Z,11.60
2023-05-12T12:06:01.267Z,10.50
2023-05-12T12:08:28.962Z,12.60
2023-05-12T12:10:56.390Z,7.00
2023-05-12T12:13:24.428Z,4.10
2023-05-12T12:15:52.168Z,9.60
2023-05-12T12:18:20.372Z,9.40
2023-05-12T12:20:47.850Z,4.30
2023-05-12T12:23:15.152Z,8.20
2023-05-12T12:25:43.753Z,7.00
2023-05-12T12:28:11.328Z,4.60
2023-05-12T12:30:38.751Z,3.70
2023-05-12T12:33:06.190Z,4.90
2023-05-12T12:35:33.572Z,6.20
2023-05-12T12:38:00.942Z,4.60
2023-05-12T12:40:28.811Z,10.00
2023-05-12T12:42:56.287Z,5.60
2023-05-12T12:45:23.963Z,2.90
2023-05-12T12:47:55.198Z,4.40
2023-05-12T12:50:25.065Z,3.90
2023-05-12T12:52:53.720Z,5.90
2023-05-12T12:55:21.214Z,4.10
2023-05-12T12:57:48.688Z,7.00
2023-05-12T13:00:16.371Z,9.10
2023-05-12T13:02:43.637Z,8.80
2023-05-12T13:05:11.090Z,8.80
2023-05-12T13:07:38.354Z,8.20
2023-05-12T13:10:06.024Z,5.30
2023-05-12T13:12:33.346Z,10.40
2023-05-12T13:15:01.056Z,3.50
2023-05-12T13:17:28.707Z,7.50
2023-05-12T13:19:56.061Z,4.40
2023-05-12T13:22:23.359Z,3.80
2023-05-12T13:24:50.586Z,4.80
2023-05-12T13:27:18.243Z,5.20
2023-05-12T13:29:47.623Z,6.60
2023-05-12T13:32:16.409Z,15.80
2023-05-12T13:34:44.039Z,7.40
2023-05-12T13:37:11.367Z,4.20
2023-05-12T13:39:38.726Z,8.40
2023-05-12T13:42:06.552Z,3.70
2023-05-12T13:44:33.973Z,4.90
2023-05-12T13:47:01.407Z,19.70
2023-05-12T13:49:29.109Z,4.10
2023-05-12T13:51:56.539Z,6.00
2023-05-12T13:54:25.161Z,3.20
2023-05-12T13:56:52.505Z,4.90
2023-05-12T13:59:20.072Z,18.00
2023-05-12T14:01:47.568Z,10.10
2023-05-12T14:04:14.921Z,3.60
2023-05-12T14:06:42.159Z,5.90
2023-05-12T14:09:09.456Z,3.40
2023-05-12T14:11:37.181Z,3.70
2023-05-12T14:14:06.487Z,9.50
2023-05-12T14:16:33.951Z,3.40
2023-05-12T14:19:01.733Z,3.30
2023-05-12T14:21:29.630Z,4.10
2023-05-12T14:23:57.213Z,4.80
2023-05-12T14:26:26.221Z,5.30
2023-05-12T14:28:53.670Z,9.60
2023-05-12T14:31:21.524Z,4.70
2023-05-12T14:33:49.023Z,8.10
2023-05-12T14:36:16.332Z,8.20
2023-05-12T14:38:43.446Z,5.50
2023-05-12T14:41:11.379Z,2.90
2023-05-12T14:43:39.388Z,7.30
2023-05-12T14:46:07.440Z,6.60
2023-05-12T14:48:35.091Z,6.70
2023-05-12T14:51:03.537Z,7.90
2023-05-12T14:53:31.449Z,7.60
2023-05-12T14:55:58.588Z,5.00
2023-05-12T14:58:25.789Z,7.90
2023-05-12T15:00:53.463Z,14.50
2023-05-12T15:03:23.839Z,5.90
2023-05-12T15:08:21.853Z,3.30
2023-05-12T15:10:49.289Z,6.50
2023-05-12T15:13:20.384Z,4.30
2023-05-12T15:15:47.946Z,3.00
2023-05-12T15:18:15.300Z,8.10
2023-05-12T15:20:42.667Z,10.60
2023-05-12T15:23:10.079Z,8.20
2023-05-12T15:25:41.122Z,4.30
2023-05-12T15:28:08.816Z,4.20
2023-05-12T15:30:36.286Z,4.70
2023-05-12T15:33:04.470Z,6.00
2023-05-12T15:35:32.421Z,4.00
2023-05-12T15:37:59.753Z,4.80
2023-05-12T15:40:27.443Z,3.40
2023-05-12T15:42:54.884Z,7.60
2023-05-12T15:45:22.517Z,5.40
2023-05-12T15:47:50.173Z,10.50
2023-05-12T15:50:20.096Z,2.80
2023-05-12T15:52:47.670Z,11.00
2023-05-12T15:55:15.348Z,4.10
2023-05-12T15:57:42.721Z,5.10
2023-05-12T16:00:10.349Z,6.70
2023-05-12T16:02:40.448Z,6.70
2023-05-12T16:05:08.397Z,8.00
2023-05-12T16:07:35.994Z,8.40
2023-05-12T16:10:03.912Z,8.50
2023-05-12T16:12:31.648Z,6.10
2023-05-12T16:14:59.607Z,4.50
2023-05-12T16:17:28.120Z,7.70
2023-05-12T16:19:57.156Z,10.30
2023-05-12T16:22:24.450Z,7.40
2023-05-12T16:24:51.770Z,4.30
2023-05-12T16:27:18.945Z,3.50
2023-05-12T16:29:49.757Z,3.70
2023-05-12T16:32:17.694Z,2.70
2023-05-12T16:34:45.107Z,10.20
2023-05-12T16:37:12.396Z,5.90
2023-05-12T16:39:40.092Z,6.80
2023-05-12T16:42:07.669Z,6.60
2023-05-12T16:44:34.976Z,7.80
2023-05-12T16:47:02.298Z,9.50
2023-05-12T16:49:29.564Z,6.60
2023-05-12T16:51:56.840Z,7.40
2023-05-12T16:54:24.623Z,6.30
2023-05-12T16:56:51.985Z,9.90
2023-05-12T16:59:19.470Z,13.10
2023-05-12T17:01:47.441Z,14.30
2023-05-12T17:04:15.888Z,10.30
2023-05-12T17:06:44.610Z,18.60
2023-05-12T17:09:11.963Z,10.60
2023-05-12T17:11:39.618Z,9.80
2023-05-12T17:14:06.960Z,9.60
2023-05-12T17:16:34.173Z,8.90
2023-05-12T17:21:32.055Z,11.70
2023-05-12T17:23:59.443Z,11.60
2023-05-12T17:26:28.208Z,6.60
2023-05-12T17:28:56.257Z,7.10
2023-05-12T17:31:23.779Z,6.80
2023-05-12T17:33:51.047Z,7.90
2023-05-12T17:36:18.978Z,12.30
2023-05-12T17:38:46.497Z,13.00
2023-05-12T17:41:13.919Z,18.00
2023-05-12T17:43:41.847Z,9.80
2023-05-12T17:46:09.421Z,14.50
2023-05-12T17:48:38.867Z,9.20
2023-05-12T17:51:06.630Z,9.70
2023-05-12T17:53:34.792Z,8.30
2023-05-12T17:56:02.420Z,14.90
2023-05-12T17:58:29.808Z,11.10
2023-05-12T18:00:57.419Z,11.40
2023-05-12T18:03:24.931Z,11.80
2023-05-12T18:05:53.520Z,20.10
2023-05-12T18:08:20.903Z,26.60
2023-05-12T18:10:48.249Z,12.20
2023-05-12T18:13:16.182Z,17.90
2023-05-12T18:15:45.078Z,13.10
2023-05-12T18:18:15.143Z,21.30
2023-05-12T18:20:45.133Z,17.30
2023-05-12T18:23:12.348Z,16.90
2023-05-12T18:25:39.660Z,21.80
2023-05-12T18:28:07.828Z,21.10
2023-05-12T18:30:35.157Z,14.60
2023-05-12T18:33:02.552Z,8.80
2023-05-12T18:35:30.052Z,15.80
2023-05-12T18:37:57.720Z,13.40
2023-05-12T18:40:25.062Z,11.40
2023-05-12T18:42:52.591Z,12.40
2023-05-12T18:45:20.278Z,9.90
2023-05-12T18:47:48.036Z,11.90
2023-05-12T18:50:15.583Z,11.20
2023-05-12T18:52:44.135Z,9.60
2023-05-12T18:55:11.593Z,14.60
2023-05-12T18:57:38.961Z,9.90
2023-05-12T19:00:07.067Z,14.30
2023-05-12T19:02:34.894Z,13.20
2023-05-12T19:05:02.435Z,26.00
2023-05-12T19:07:30.256Z,25.50
2023-05-12T19:09:57.620Z,21.20
2023-05-12T19:12:25.458Z,17.00
2023-05-12T19:14:53.018Z,22.50
2023-05-12T19:17:20.373Z,15.00
2023-05-12T19:19:49.461Z,24.00
2023-05-12T19:22:16.754Z,17.20
2023-05-12T19:24:44.016Z,18.80
2023-05-12T19:27:11.307Z,14.70
2023-05-12T19:29:38.877Z,16.70
2023-05-12T19:32:06.683Z,15.40
2023-05-12T19:34:34.225Z,25.10
2023-05-12T19:37:01.595Z,27.90
2023-05-12T19:39:29.150Z,20.80
2023-05-12T19:41:56.415Z,23.40
2023-05-12T19:44:23.902Z,21.30
2023-05-12T19:46:51.926Z,21.70
2023-05-12T19:49:19.178Z,15.30
2023-05-12T19:51:46.649Z,12.60
2023-05-12T19:54:14.303Z,26.40
2023-05-12T19:56:41.737Z,22.90
2023-05-12T19:59:09.090Z,23.50
2023-05-12T20:01:36.402Z,27.40
2023-05-12T20:04:03.803Z,16.80
2023-05-12T20:06:33.824Z,24.40
2023-05-12T20:09:01.969Z,22.80
2023-05-12T20:11:29.300Z,23.20
2023-05-12T20:13:56.668Z,26.90
2023-05-12T20:16:24.056Z,19.40
2023-05-12T20:18:51.543Z,27.80
2023-05-12T20:21:19.601Z,23.60
2023-05-12T20:23:47.586Z,23.40
2023-05-12T20:26:18.903Z,25.90
2023-05-12T20:28:59.494Z,21.80
2023-05-12T20:31:37.338Z,30.10
2023-05-12T20:34:37.660Z,24.90
2023-05-12T20:37:08.081Z,25.20
2023-05-12T20:39:35.497Z,36.20
2023-05-12T20:42:04.153Z,30.00
2023-05-12T20:44:31.550Z,29.20
2023-05-12T20:46:58.983Z,26.90
2023-05-12T20:49:26.396Z,26.60
2023-05-12T20:51:53.688Z,19.30
2023-05-12T20:54:21.165Z,25.50
2023-05-12T20:56:48.533Z,19.00
2023-05-12T20:59:15.890Z,28.70
2023-05-12T21:01:43.209Z,27.00
2023-05-12T21:04:11.157Z,27.30
2023-05-12T21:06:38.556Z,18.60
2023-05-12T21:09:06.225Z,24.70
2023-05-12T21:11:33.643Z,23.60
2023-05-12T21:14:01.741Z,21.80
2023-05-12T21:16:29.316Z,25.80
2023-05-12T21:18:56.955Z,34.30
2023-05-12T21:21:24.303Z,31.40
2023-05-12T21:23:51.697Z,33.60
2023-05-12T21:26:19.404Z,30.60
2023-05-12T21:28:47.748Z,31.90
2023-05-12T21:31:15.200Z,31.60
2023-05-12T21:33:42.528Z,29.80
2023-05-12T21:36:09.992Z,27.10
2023-05-12T21:38:37.412Z,32.80
2023-05-12T21:41:05.166Z,32.60
2023-05-12T21:43:32.571Z,30.70
2023-05-12T21:46:04.743Z,30.50
2023-05-12T21:48:33.599Z,27.30
2023-05-12T21:51:01.973Z,31.00
2023-05-12T21:53:29.588Z,33.60
2023-05-12T21:55:57.169Z,27.00
2023-05-12T21:58:24.603Z,29.80
2023-05-12T22:00:52.621Z,29.70
2023-05-12T22:03:51.983Z,28.20
2023-05-12T22:06:19.699Z,36.60
2023-05-12T22:08:47.101Z,31.80
2023-05-12T22:11:14.932Z,26.00
2023-05-12T22:13:42.427Z,36.60
2023-05-12T22:16:09.851Z,38.30
2023-05-12T22:18:38.144Z,31.30
2023-05-12T22:21:05.502Z,30.00
2023-05-12T22:23:32.901Z,32.10
2023-05-12T22:26:00.217Z,24.20
2023-05-12T22:28:27.459Z,30.50
2023-05-12T22:30:54.820Z,41.60
2023-05-12T22:33:22.192Z,31.60
2023-05-12T22:35:49.533Z,31.70
2023-05-12T22:38:18.119Z,33.70
2023-05-12T22:40:52.487Z,28.50
2023-05-12T22:43:33.055Z,33.50
2023-05-12T22:46:21.097Z,27.90
2023-05-12T22:48:48.400Z,35.60
2023-05-12T22:51:16.179Z,27.40
2023-05-12T22:53:43.461Z,31.10
2023-05-12T22:56:10.828Z,28.90
2023-05-12T22:58:38.147Z,23.40
2023-05-12T23:01:06.222Z,29.00
2023-05-12T23:03:33.829Z,27.50
2023-05-12T23:06:01.326Z,34.70
2023-05-12T23:08:28.926Z,33.60
2023-05-12T23:10:56.322Z,27.00
2023-05-12T23:13:23.553Z,29.40
2023-05-12T23:15:51.033Z,30.00
2023-05-12T23:18:19.652Z,37.40
2023-05-12T23:20:47.096Z,31.40
2023-05-12T23:23:14.387Z,24.30
2023-05-12T23:25:43.085Z,26.80
2023-05-12T23:28:11.926Z,26.00
2023-05-12T23:30:39.343Z,25.90
2023-05-12T23:33:06.768Z,26.00
2023-05-12T23:35:34.188Z,32.90
2023-05-12T23:38:01.860Z,35.40
2023-05-12T23:40:30.180Z,37.80
2023-05-12T23:42:57.468Z,37.90
2023-05-12T23:45:24.762Z,42.00
2023-05-12T23:47:52.118Z,39.40
2023-05-12T23:50:20.032Z,34.80
2023-05-12T23:52:47.806Z,35.50
2023-05-12T23:55:15.278Z,41.70
2023-05-12T23:57:42.675Z,40.00
